Time;durP1;ratioP1;P1;durP2;ratioP2;P2;SDS_P1;SDS_P2;PMS_P1;PMS_P2;Temp;Humidity;BMP_temperature;BMP_pressure;BME280_temperature;BME280_humidity;BME280_pressure;Samples;Min_cycle;Max_cycle;Signal;HPM_P1;HPM_P2
2023/03/27 00:00:56;;;;;;;4.05;1.25;;;;;;;;;;5081338;28;20045;-60
2023/03/27 00:03:24;;;;;;;6.10;1.30;;;;;;;;;;5054766;28;20110;-59
2023/03/27 00:06:01;;;;;;;4.68;1.75;;;;;;;;;;5055848;28;20053;-60
2023/03/27 00:08:28;;;;;;;6.28;1.45;;;;;;;;;;5060002;28;20550;-59
2023/03/27 00:10:55;;;;;;;4.38;1.05;;;;;;;;;;5063273;28;20053;-59
2023/03/27 00:13:22;;;;;;;5.70;1.35;;;;;;;;;;5060521;28;20971;-59
2023/03/27 00:15:49;;;;;;;5.47;1.70;;;;;;;;;;5053918;28;20037;-59
2023/03/27 00:18:16;;;;;;;4.80;1.52;;;;;;;;;;5064277;28;20049;-59
2023/03/27 00:20:43;;;;;;;4.95;2.00;;;;;;;;;;5083518;28;21024;-61
2023/03/27 00:23:10;;;;;;;7.78;1.40;;;;;;;;;;5067012;28;20048;-59
2023/03/27 00:25:36;;;;;;;5.38;1.40;;;;;;;;;;5055615;28;20042;-59
2023/03/27 00:28:03;;;;;;;8.20;1.75;;;;;;;;;;5060264;28;20365;-60
2023/03/27 00:30:29;;;;;;;9.07;1.65;;;;;;;;;;5068046;28;20045;-60
2023/03/27 00:32:57;;;;;;;5.13;1.15;;;;;;;;;;5065765;28;20093;-60
2023/03/27 00:35:24;;;;;;;7.72;1.85;;;;;;;;;;5065334;28;20056;-60
2023/03/27 00:37:51;;;;;;;7.38;1.38;;;;;;;;;;5060824;28;20049;-59
2023/03/27 00:40:17;;;;;;;4.95;1.20;;;;;;;;;;5049669;28;20168;-60
2023/03/27 00:42:48;;;;;;;3.50;1.00;;;;;;;;;;5064631;28;20143;-60
2023/03/27 00:45:19;;;;;;;1.10;0.70;;;;;;;;;;5074658;28;20053;-60
2023/03/27 00:47:48;;;;;;;6.47;1.42;;;;;;;;;;5064648;28;20053;-60
2023/03/27 00:50:18;;;;;;;8.85;1.85;;;;;;;;;;5065815;28;20056;-59
2023/03/27 00:52:46;;;;;;;4.40;1.15;;;;;;;;;;5059151;28;20053;-60
2023/03/27 00:55:15;;;;;;;4.22;1.35;;;;;;;;;;5046282;28;20910;-60
2023/03/27 00:57:43;;;;;;;3.58;1.23;;;;;;;;;;5054226;28;20048;-60
2023/03/27 01:00:13;;;;;;;5.45;0.90;;;;;;;;;;5065456;28;20049;-58
2023/03/27 01:02:40;;;;;;;3.35;1.30;;;;;;;;;;5062222;28;20062;-59
2023/03/27 01:05:08;;;;;;;3.13;1.42;;;;;;;;;;5052161;28;20499;-59
2023/03/27 01:07:35;;;;;;;5.72;1.10;;;;;;;;;;5064384;28;20045;-59
2023/03/27 01:10:03;;;;;;;7.10;1.40;;;;;;;;;;5065019;28;20071;-59
2023/03/27 01:12:30;;;;;;;8.60;1.38;;;;;;;;;;5078857;28;20092;-59
2023/03/27 01:15:07;;;;;;;2.97;1.15;;;;;;;;;;5067252;28;20080;-59
2023/03/27 01:17:51;;;;;;;3.60;1.08;;;;;;;;;;5064771;28;20240;-59
2023/03/27 01:20:21;;;;;;;6.07;1.42;;;;;;;;;;5046261;28;20558;-59
2023/03/27 01:23:07;;;;;;;5.32;1.35;;;;;;;;;;5053875;28;20057;-59
2023/03/27 01:25:52;;;;;;;4.57;1.45;;;;;;;;;;5057607;28;20103;-60
2023/03/27 01:28:33;;;;;;;5.95;1.20;;;;;;;;;;5053028;28;20045;-60
2023/03/27 01:31:21;;;;;;;5.97;1.60;;;;;;;;;;5065800;28;20055;-60
2023/03/27 01:34:00;;;;;;;6.15;1.85;;;;;;;;;;5078022;28;20055;-59
2023/03/27 01:36:41;;;;;;;3.45;0.98;;;;;;;;;;5081019;28;20051;-61
2023/03/27 01:39:11;;;;;;;5.00;1.10;;;;;;;;;;5077252;28;20393;-60
2023/03/27 01:41:43;;;;;;;6.07;1.20;;;;;;;;;;5044840;28;20077;-60
2023/03/27 01:44:20;;;;;;;5.55;1.10;;;;;;;;;;5075923;28;20076;-59
2023/03/27 01:47:00;;;;;;;1.80;0.90;;;;;;;;;;5084472;28;20079;-59
2023/03/27 01:49:30;;;;;;;1.30;0.77;;;;;;;;;;5081391;28;20053;-60
2023/03/27 01:52:02;;;;;;;4.20;0.98;;;;;;;;;;5071667;28;20056;-59
2023/03/27 01:54:33;;;;;;;5.10;0.85;;;;;;;;;;5067178;28;20063;-60
2023/03/27 01:57:07;;;;;;;4.28;0.80;;;;;;;;;;5077788;28;20052;-61
2023/03/27 01:59:36;;;;;;;2.55;1.02;;;;;;;;;;5076119;28;20056;-59
2023/03/27 02:02:07;;;;;;;3.00;0.90;;;;;;;;;;5085596;28;20103;-59
2023/03/27 02:04:45;;;;;;;2.00;0.73;;;;;;;;;;5085527;28;20098;-60
2023/03/27 02:07:16;;;;;;;2.83;0.60;;;;;;;;;;5086047;28;20147;-59
2023/03/27 02:09:44;;;;;;;5.28;1.38;;;;;;;;;;5085535;28;20072;-60
2023/03/27 02:12:14;;;;;;;4.90;1.70;;;;;;;;;;5077643;28;20055;-59
2023/03/27 02:14:45;;;;;;;5.32;0.90;;;;;;;;;;5067287;28;20049;-59
2023/03/27 02:17:13;;;;;;;2.80;0.88;;;;;;;;;;5065192;28;20045;-60
2023/03/27 02:19:53;;;;;;;5.60;0.95;;;;;;;;;;5072735;28;20084;-59
2023/03/27 02:22:19;;;;;;;1.48;0.70;;;;;;;;;;5083058;28;20056;-59
2023/03/27 02:25:19;;;;;;;2.25;0.75;;;;;;;;;;5075995;28;20045;-59
2023/03/27 02:27:47;;;;;;;7.90;1.45;;;;;;;;;;5083912;28;20052;-60
2023/03/27 02:30:22;;;;;;;1.85;1.00;;;;;;;;;;5079964;28;20049;-59
2023/03/27 02:33:01;;;;;;;3.75;1.25;;;;;;;;;;5070835;28;20049;-59
2023/03/27 02:35:46;;;;;;;8.45;1.02;;;;;;;;;;5053512;28;20541;-59
2023/03/27 02:38:19;;;;;;;2.42;0.82;;;;;;;;;;5057437;28;20058;-59
2023/03/27 02:40:48;;;;;;;5.68;1.27;;;;;;;;;;5070655;28;20574;-59
2023/03/27 02:43:17;;;;;;;7.13;0.80;;;;;;;;;;5052672;28;20049;-59
2023/03/27 02:45:56;;;;;;;4.97;0.90;;;;;;;;;;5068354;28;20057;-59
2023/03/27 02:48:23;;;;;;;4.63;1.15;;;;;;;;;;5066981;28;20041;-59
2023/03/27 02:50:52;;;;;;;8.10;1.00;;;;;;;;;;5085322;28;20052;-59
2023/03/27 02:53:20;;;;;;;3.53;0.90;;;;;;;;;;5066364;28;20083;-59
2023/03/27 02:55:50;;;;;;;2.80;0.82;;;;;;;;;;5050815;28;20107;-60
2023/03/27 02:58:20;;;;;;;6.95;1.08;;;;;;;;;;5075234;28;20111;-59
2023/03/27 03:00:47;;;;;;;5.13;0.75;;;;;;;;;;5066503;28;20132;-59
2023/03/27 03:03:20;;;;;;;2.40;1.25;;;;;;;;;;5067178;28;20053;-59
2023/03/27 03:05:46;;;;;;;1.55;1.05;;;;;;;;;;5067017;28;20491;-58
2023/03/27 03:08:13;;;;;;;7.97;1.40;;;;;;;;;;5067233;28;20077;-61
2023/03/27 03:10:43;;;;;;;7.22;1.13;;;;;;;;;;5076925;28;20084;-59
2023/03/27 03:13:10;;;;;;;4.63;1.08;;;;;;;;;;5066812;28;20506;-59
2023/03/27 03:15:36;;;;;;;2.55;0.80;;;;;;;;;;5067932;28;20045;-60
2023/03/27 03:18:02;;;;;;;1.13;0.80;;;;;;;;;;5057478;28;20053;-59
2023/03/27 03:20:29;;;;;;;3.30;0.90;;;;;;;;;;5067884;28;20148;-59
2023/03/27 03:22:56;;;;;;;1.95;0.93;;;;;;;;;;5073895;28;20050;-59
2023/03/27 03:25:24;;;;;;;4.43;0.90;;;;;;;;;;5047234;28;20056;-59
2023/03/27 03:27:56;;;;;;;3.58;1.15;;;;;;;;;;5049106;28;20059;-59
2023/03/27 03:30:26;;;;;;;2.55;1.15;;;;;;;;;;5058281;28;20091;-61
2023/03/27 03:32:53;;;;;;;7.75;1.60;;;;;;;;;;5063455;28;20056;-59
2023/03/27 03:35:21;;;;;;;7.03;1.17;;;;;;;;;;5060201;28;20541;-59
2023/03/27 03:37:49;;;;;;;3.60;1.10;;;;;;;;;;5060263;28;20057;-59
2023/03/27 03:40:17;;;;;;;5.05;1.30;;;;;;;;;;5046827;28;20049;-59
2023/03/27 03:42:44;;;;;;;2.28;0.88;;;;;;;;;;5055588;28;20060;-59
2023/03/27 03:45:11;;;;;;;4.50;0.98;;;;;;;;;;5077696;28;20053;-58
2023/03/27 03:47:37;;;;;;;6.40;1.00;;;;;;;;;;5057674;28;20093;-61
2023/03/27 03:50:04;;;;;;;6.95;0.95;;;;;;;;;;5059254;28;20103;-59
2023/03/27 03:52:30;;;;;;;3.90;0.75;;;;;;;;;;5067575;28;20045;-61
2023/03/27 03:54:56;;;;;;;4.50;1.23;;;;;;;;;;5063090;28;20055;-61
2023/03/27 03:57:23;;;;;;;7.22;1.90;;;;;;;;;;5067232;28;20049;-60
2023/03/27 03:59:49;;;;;;;2.95;1.10;;;;;;;;;;5065947;28;20147;-61
2023/03/27 04:02:28;;;;;;;5.20;1.20;;;;;;;;;;5067589;28;20059;-60
2023/03/27 04:04:55;;;;;;;7.00;1.17;;;;;;;;;;5066371;28;20354;-60
2023/03/27 04:07:22;;;;;;;5.78;1.13;;;;;;;;;;5067753;28;20503;-60
2023/03/27 04:09:49;;;;;;;7.07;1.45;;;;;;;;;;5087015;28;20510;-60
2023/03/27 04:12:16;;;;;;;6.45;0.82;;;;;;;;;;5075525;28;20507;-60
2023/03/27 04:14:42;;;;;;;2.25;1.00;;;;;;;;;;5083010;28;20537;-61
2023/03/27 04:17:10;;;;;;;3.97;0.93;;;;;;;;;;5051732;28;20513;-60
2023/03/27 04:19:36;;;;;;;3.13;0.80;;;;;;;;;;5059787;28;20048;-60
2023/03/27 04:22:03;;;;;;;8.82;1.77;;;;;;;;;;5085166;28;20052;-60
2023/03/27 04:24:29;;;;;;;2.28;0.88;;;;;;;;;;5086746;28;20143;-60
2023/03/27 04:26:57;;;;;;;1.33;0.70;;;;;;;;;;5080258;28;20048;-60
2023/03/27 04:29:24;;;;;;;6.15;1.30;;;;;;;;;;5061520;28;20137;-60
2023/03/27 04:31:50;;;;;;;5.85;1.48;;;;;;;;;;5050315;28;20436;-65
2023/03/27 04:34:21;;;;;;;5.93;1.35;;;;;;;;;;5057287;28;20053;-60
2023/03/27 04:36:49;;;;;;;4.22;1.15;;;;;;;;;;5060280;28;20054;-59
2023/03/27 04:39:16;;;;;;;6.97;1.10;;;;;;;;;;5057387;28;20549;-60
2023/03/27 04:41:47;;;;;;;2.95;1.23;;;;;;;;;;5057456;28;20056;-60
2023/03/27 04:44:16;;;;;;;4.28;0.80;;;;;;;;;;5050190;28;20115;-60
2023/03/27 04:46:43;;;;;;;3.75;1.02;;;;;;;;;;5053736;28;20057;-60
2023/03/27 04:49:10;;;;;;;5.50;1.33;;;;;;;;;;5065690;28;20179;-60
2023/03/27 04:51:37;;;;;;;8.90;1.38;;;;;;;;;;5065748;28;20049;-61
2023/03/27 04:54:03;;;;;;;5.65;1.55;;;;;;;;;;5066134;28;20130;-61
2023/03/27 04:56:32;;;;;;;3.88;1.27;;;;;;;;;;5070247;28;20198;-61
2023/03/27 04:58:59;;;;;;;2.88;1.00;;;;;;;;;;5066717;28;20515;-60
2023/03/27 05:01:25;;;;;;;2.13;0.60;;;;;;;;;;5063871;28;20171;-60
2023/03/27 05:03:52;;;;;;;3.08;0.95;;;;;;;;;;5064256;28;20130;-60
2023/03/27 05:06:19;;;;;;;4.88;1.05;;;;;;;;;;5049588;28;20067;-60
2023/03/27 05:08:45;;;;;;;4.97;1.98;;;;;;;;;;5084826;28;20056;-60
2023/03/27 05:11:11;;;;;;;1.27;0.63;;;;;;;;;;5085389;28;20052;-58
2023/03/27 05:13:38;;;;;;;3.13;0.90;;;;;;;;;;5086365;28;20056;-59
2023/03/27 05:16:04;;;;;;;3.20;1.48;;;;;;;;;;5064753;28;20060;-60
2023/03/27 05:18:31;;;;;;;6.60;1.25;;;;;;;;;;5079325;28;20045;-61
2023/03/27 05:20:57;;;;;;;3.72;0.93;;;;;;;;;;5083442;28;20044;-60
2023/03/27 05:23:24;;;;;;;2.78;1.10;;;;;;;;;;5086507;28;20062;-61
2023/03/27 05:25:51;;;;;;;3.63;1.10;;;;;;;;;;5083582;28;20049;-61
2023/03/27 05:28:26;;;;;;;3.85;0.90;;;;;;;;;;5086534;28;20057;-60
2023/03/27 05:30:52;;;;;;;2.83;1.58;;;;;;;;;;5080804;28;20040;-60
2023/03/27 05:33:19;;;;;;;2.38;0.77;;;;;;;;;;5082731;28;20056;-60
2023/03/27 05:35:47;;;;;;;6.32;1.05;;;;;;;;;;5085310;28;20056;-60
2023/03/27 05:38:14;;;;;;;6.40;1.15;;;;;;;;;;5085854;28;20133;-60
2023/03/27 05:40:40;;;;;;;3.25;1.33;;;;;;;;;;5076552;28;20063;-61
2023/03/27 05:43:07;;;;;;;3.05;1.02;;;;;;;;;;5064046;28;20049;-61
2023/03/27 05:45:33;;;;;;;5.15;0.98;;;;;;;;;;5065890;28;20588;-62
2023/03/27 05:48:01;;;;;;;1.17;0.73;;;;;;;;;;5068081;28;20060;-47
2023/03/27 05:50:28;;;;;;;4.65;1.02;;;;;;;;;;5058486;28;20060;-62
2023/03/27 05:52:56;;;;;;;6.45;0.98;;;;;;;;;;5063617;28;20095;-63
2023/03/27 05:55:23;;;;;;;1.67;0.95;;;;;;;;;;5065274;28;20555;-62
2023/03/27 05:57:53;;;;;;;4.68;1.35;;;;;;;;;;5069427;28;20181;-60
2023/03/27 06:00:26;;;;;;;8.70;1.63;;;;;;;;;;5062719;28;20064;-61
2023/03/27 06:02:53;;;;;;;5.88;1.40;;;;;;;;;;5074401;28;20939;-62
2023/03/27 06:05:20;;;;;;;8.23;1.60;;;;;;;;;;5062891;28;20775;-59
2023/03/27 06:07:46;;;;;;;6.20;1.77;;;;;;;;;;5063504;28;20067;-59
2023/03/27 06:10:16;;;;;;;5.75;1.27;;;;;;;;;;5071410;28;20438;-59
2023/03/27 06:12:43;;;;;;;2.70;1.25;;;;;;;;;;5065076;28;20057;-60
2023/03/27 06:15:11;;;;;;;2.13;1.13;;;;;;;;;;5064053;28;20521;-59
2023/03/27 06:17:38;;;;;;;4.32;1.35;;;;;;;;;;5060730;28;20111;-59
2023/03/27 06:20:13;;;;;;;5.40;1.20;;;;;;;;;;5059021;28;20053;-59
2023/03/27 06:22:45;;;;;;;4.53;1.65;;;;;;;;;;5052768;28;20872;-61
2023/03/27 06:25:11;;;;;;;5.30;1.42;;;;;;;;;;5062610;28;20053;-61
2023/03/27 06:27:40;;;;;;;5.82;1.95;;;;;;;;;;5062968;28;20056;-59
2023/03/27 06:30:06;;;;;;;2.97;1.50;;;;;;;;;;5063213;28;20144;-60
2023/03/27 06:32:35;;;;;;;8.35;1.30;;;;;;;;;;5078668;28;20044;-61
2023/03/27 06:35:02;;;;;;;7.65;1.75;;;;;;;;;;5079473;28;20457;-61
2023/03/27 06:37:32;;;;;;;4.70;1.27;;;;;;;;;;5083363;28;21003;-61
2023/03/27 06:39:59;;;;;;;3.55;1.60;;;;;;;;;;5071591;28;20057;-60
2023/03/27 06:42:25;;;;;;;6.20;1.55;;;;;;;;;;5065890;28;20072;-60
2023/03/27 06:44:51;;;;;;;4.82;1.95;;;;;;;;;;5072119;28;20053;-60
2023/03/27 06:47:18;;;;;;;6.82;1.60;;;;;;;;;;5080401;28;20060;-61
2023/03/27 06:49:46;;;;;;;3.70;1.40;;;;;;;;;;5075294;28;20081;-60
2023/03/27 06:52:13;;;;;;;5.43;1.38;;;;;;;;;;5057076;28;20049;-61
2023/03/27 06:54:40;;;;;;;8.55;2.55;;;;;;;;;;5077009;28;20122;-60
2023/03/27 06:57:06;;;;;;;8.13;2.53;;;;;;;;;;5066701;28;20045;-61
2023/03/27 06:59:33;;;;;;;5.43;1.20;;;;;;;;;;5065424;28;20056;-59
2023/03/27 07:02:00;;;;;;;7.70;1.73;;;;;;;;;;5064210;28;20576;-61
2023/03/27 07:04:26;;;;;;;3.60;1.30;;;;;;;;;;5069434;28;20392;-60
2023/03/27 07:06:52;;;;;;;5.95;1.25;;;;;;;;;;5059398;28;20440;-60
2023/03/27 07:09:19;;;;;;;6.90;1.33;;;;;;;;;;5073225;28;20172;-61
2023/03/27 07:11:45;;;;;;;6.60;1.20;;;;;;;;;;5066923;28;20051;-61
2023/03/27 07:14:11;;;;;;;4.10;1.45;;;;;;;;;;5078867;28;20052;-60
2023/03/27 07:16:38;;;;;;;8.57;1.45;;;;;;;;;;5068494;28;20771;-60
2023/03/27 07:19:04;;;;;;;6.15;1.33;;;;;;;;;;5063616;28;20582;-59
2023/03/27 07:21:31;;;;;;;4.97;0.90;;;;;;;;;;5061933;28;20151;-60
2023/03/27 07:23:57;;;;;;;6.07;1.20;;;;;;;;;;5066606;28;20058;-60
2023/03/27 07:26:23;;;;;;;3.83;1.23;;;;;;;;;;5082978;28;20052;-60
2023/03/27 07:28:50;;;;;;;6.45;1.42;;;;;;;;;;5063786;28;20059;-61
2023/03/27 07:31:17;;;;;;;11.48;1.67;;;;;;;;;;5062898;28;20060;-60
2023/03/27 07:34:03;;;;;;;4.82;1.08;;;;;;;;;;5072273;28;20533;-61
2023/03/27 07:36:30;;;;;;;2.08;0.70;;;;;;;;;;5062411;28;20163;-61
2023/03/27 07:38:57;;;;;;;8.77;1.52;;;;;;;;;;5075511;28;20056;-60
2023/03/27 07:41:24;;;;;;;2.88;0.50;;;;;;;;;;5069780;28;20049;-61
2023/03/27 07:43:50;;;;;;;4.43;1.17;;;;;;;;;;5065534;28;20519;-60
2023/03/27 07:46:16;;;;;;;4.05;1.33;;;;;;;;;;5067023;28;20053;-61
2023/03/27 07:48:43;;;;;;;8.15;1.20;;;;;;;;;;5085323;28;20052;-61
2023/03/27 07:51:09;;;;;;;2.83;0.77;;;;;;;;;;5064956;28;20052;-61
2023/03/27 07:53:40;;;;;;;5.53;1.00;;;;;;;;;;5065453;28;20041;-62
2023/03/27 07:56:07;;;;;;;7.07;1.00;;;;;;;;;;5064169;28;20057;-61
2023/03/27 07:58:34;;;;;;;4.18;1.00;;;;;;;;;;5069020;28;20077;-63
2023/03/27 08:01:00;;;;;;;7.28;0.82;;;;;;;;;;5073899;28;20049;-60
2023/03/27 08:03:29;;;;;;;1.85;1.30;;;;;;;;;;5069387;28;20573;-61
2023/03/27 08:05:57;;;;;;;3.03;1.00;;;;;;;;;;5061957;28;20156;-61
2023/03/27 08:08:24;;;;;;;1.27;0.60;;;;;;;;;;5077233;28;20863;-60
2023/03/27 08:10:53;;;;;;;5.65;1.25;;;;;;;;;;5074513;28;20060;-59
2023/03/27 08:13:19;;;;;;;4.95;1.25;;;;;;;;;;5063766;28;20581;-59
2023/03/27 08:15:46;;;;;;;3.42;1.10;;;;;;;;;;5066022;28;20053;-60
2023/03/27 08:18:12;;;;;;;5.60;0.77;;;;;;;;;;5066724;28;20063;-60
2023/03/27 08:20:39;;;;;;;9.90;1.35;;;;;;;;;;5074489;28;20044;-61
2023/03/27 08:23:05;;;;;;;4.70;0.90;;;;;;;;;;5064225;28;20136;-59
2023/03/27 08:25:35;;;;;;;5.57;0.70;;;;;;;;;;5077408;28;20136;-60
2023/03/27 08:28:02;;;;;;;2.72;0.63;;;;;;;;;;5074225;28;20052;-60
2023/03/27 08:30:28;;;;;;;3.45;0.80;;;;;;;;;;5069508;28;20045;-59
2023/03/27 08:32:55;;;;;;;8.48;0.95;;;;;;;;;;5065335;28;20056;-59
2023/03/27 08:35:22;;;;;;;3.38;0.63;;;;;;;;;;5070197;28;20262;-60
2023/03/27 08:37:48;;;;;;;6.00;1.10;;;;;;;;;;5072264;28;20049;-59
2023/03/27 08:40:26;;;;;;;2.30;0.70;;;;;;;;;;5061551;28;20055;-60
2023/03/27 08:42:55;;;;;;;1.40;0.60;;;;;;;;;;5063369;28;20147;-60
2023/03/27 08:45:26;;;;;;;4.80;0.95;;;;;;;;;;5065934;28;20053;-60
2023/03/27 08:48:13;;;;;;;3.13;0.70;;;;;;;;;;5053600;28;20088;-59
2023/03/27 08:50:47;;;;;;;5.82;0.68;;;;;;;;;;5055850;28;20138;-60
2023/03/27 08:53:19;;;;;;;3.92;0.80;;;;;;;;;;5062641;28;20846;-60
2023/03/27 08:55:46;;;;;;;3.63;0.75;;;;;;;;;;5063246;28;20083;-61
2023/03/27 08:58:21;;;;;;;4.82;1.00;;;;;;;;;;5062869;28;20056;-60
2023/03/27 09:00:59;;;;;;;3.50;1.15;;;;;;;;;;5063351;28;20705;-60
2023/03/27 09:03:28;;;;;;;3.10;0.80;;;;;;;;;;5067235;28;20053;-60
2023/03/27 09:05:57;;;;;;;3.72;0.90;;;;;;;;;;5063825;28;20044;-60
2023/03/27 09:08:27;;;;;;;4.05;1.08;;;;;;;;;;5060888;28;20136;-60
2023/03/27 09:11:02;;;;;;;7.20;1.00;;;;;;;;;;5062062;28;20092;-61
2023/03/27 09:13:28;;;;;;;3.45;1.08;;;;;;;;;;5062214;28;20057;-59
2023/03/27 09:16:02;;;;;;;3.10;0.55;;;;;;;;;;5074416;28;20049;-60
2023/03/27 09:18:32;;;;;;;1.35;0.55;;;;;;;;;;5075210;28;20077;-59
2023/03/27 09:21:06;;;;;;;7.50;0.93;;;;;;;;;;5062491;28;20132;-61
2023/03/27 09:23:45;;;;;;;4.00;0.60;;;;;;;;;;5064491;28;20601;-60
2023/03/27 09:26:19;;;;;;;5.80;0.93;;;;;;;;;;5061505;28;20049;-60
2023/03/27 09:28:50;;;;;;;2.60;1.20;;;;;;;;;;5067816;28;20052;-58
2023/03/27 09:31:27;;;;;;;3.88;0.85;;;;;;;;;;5062314;28;20502;-60
2023/03/27 09:33:56;;;;;;;3.75;0.80;;;;;;;;;;5060233;28;20503;-60
2023/03/27 09:36:23;;;;;;;1.60;0.80;;;;;;;;;;5062514;28;20076;-59
2023/03/27 09:38:57;;;;;;;4.22;0.80;;;;;;;;;;5068758;28;20628;-60
2023/03/27 09:41:25;;;;;;;4.30;0.95;;;;;;;;;;5069598;28;20155;-60
2023/03/27 09:44:13;;;;;;;1.77;0.65;;;;;;;;;;5060751;28;20549;-59
2023/03/27 09:46:44;;;;;;;1.35;0.65;;;;;;;;;;5060928;28;20136;-59
2023/03/27 09:49:12;;;;;;;2.60;0.60;;;;;;;;;;5060803;28;20147;-59
2023/03/27 09:51:51;;;;;;;3.25;0.82;;;;;;;;;;5061621;28;20490;-61
2023/03/27 09:54:19;;;;;;;4.18;0.82;;;;;;;;;;5060312;28;20049;-60
2023/03/27 09:56:50;;;;;;;4.95;0.93;;;;;;;;;;5058536;28;20596;-61
2023/03/27 09:59:37;;;;;;;4.80;0.80;;;;;;;;;;5065182;28;20449;-59
2023/03/27 10:02:13;;;;;;;1.20;0.60;;;;;;;;;;5074006;28;20049;-60
2023/03/27 10:04:55;;;;;;;1.80;0.70;;;;;;;;;;5059120;28;20136;-59
2023/03/27 10:07:22;;;;;;;8.30;1.33;;;;;;;;;;5058779;28;20072;-59
2023/03/27 10:10:10;;;;;;;4.85;1.00;;;;;;;;;;5065522;28;20059;-60
2023/03/27 10:12:37;;;;;;;5.80;1.20;;;;;;;;;;5059420;28;20148;-59
2023/03/27 10:15:05;;;;;;;5.65;1.30;;;;;;;;;;5077084;28;20514;-60
2023/03/27 10:17:38;;;;;;;8.43;1.15;;;;;;;;;;5060754;28;20513;-60
2023/03/27 10:20:10;;;;;;;2.33;0.98;;;;;;;;;;5061066;28;20075;-59
2023/03/27 10:22:37;;;;;;;3.60;1.05;;;;;;;;;;5059058;28;20494;-60
2023/03/27 10:25:05;;;;;;;3.80;0.95;;;;;;;;;;5071399;28;20045;-59
2023/03/27 10:27:33;;;;;;;6.38;1.25;;;;;;;;;;5061424;28;20510;-60
2023/03/27 10:30:00;;;;;;;6.50;0.90;;;;;;;;;;5066329;28;20602;-61
2023/03/27 10:32:43;;;;;;;2.08;1.25;;;;;;;;;;5065818;28;20140;-60
2023/03/27 10:35:25;;;;;;;3.53;1.02;;;;;;;;;;5058637;28;20060;-60
2023/03/27 10:37:52;;;;;;;2.75;1.17;;;;;;;;;;5057211;28;20228;-60
2023/03/27 10:40:20;;;;;;;3.30;0.95;;;;;;;;;;5055519;28;20407;-59
2023/03/27 10:42:47;;;;;;;7.45;1.00;;;;;;;;;;5054367;28;20136;-60
2023/03/27 10:45:15;;;;;;;5.00;1.00;;;;;;;;;;5056005;28;20053;-60
2023/03/27 10:47:44;;;;;;;6.88;1.08;;;;;;;;;;5059699;28;20139;-60
2023/03/27 10:50:27;;;;;;;9.48;1.80;;;;;;;;;;5058705;28;20053;-60
2023/03/27 10:53:06;;;;;;;4.68;1.00;;;;;;;;;;5066575;28;20128;-60
2023/03/27 10:55:47;;;;;;;6.15;1.38;;;;;;;;;;5066023;28;20414;-61
2023/03/27 10:58:19;;;;;;;7.55;1.25;;;;;;;;;;5078437;28;20052;-61
2023/03/27 11:00:50;;;;;;;4.88;1.15;;;;;;;;;;5059011;28;20484;-61
2023/03/27 11:03:33;;;;;;;1.20;0.57;;;;;;;;;;5062027;28;20063;-61
2023/03/27 11:06:01;;;;;;;5.15;2.17;;;;;;;;;;5041443;28;20052;-61
2023/03/27 11:08:32;;;;;;;4.18;1.00;;;;;;;;;;5071273;28;20546;-61
2023/03/27 11:11:06;;;;;;;2.55;0.93;;;;;;;;;;5066704;28;20045;-61
2023/03/27 11:13:35;;;;;;;3.92;1.13;;;;;;;;;;5065571;28;20049;-62
2023/03/27 11:16:08;;;;;;;8.73;1.75;;;;;;;;;;5078048;28;20041;-61
2023/03/27 11:18:37;;;;;;;5.30;0.95;;;;;;;;;;5071191;28;20049;-62
2023/03/27 11:21:07;;;;;;;7.97;1.33;;;;;;;;;;5064827;28;20402;-61
2023/03/27 11:23:39;;;;;;;10.27;1.42;;;;;;;;;;5067512;28;20084;-61
2023/03/27 11:26:06;;;;;;;3.42;1.35;;;;;;;;;;5061498;28;20349;-60
2023/03/27 11:28:32;;;;;;;2.40;0.70;;;;;;;;;;5063028;28;20491;-61
2023/03/27 11:31:05;;;;;;;4.47;0.70;;;;;;;;;;5076376;28;20155;-62
2023/03/27 11:33:45;;;;;;;4.63;0.80;;;;;;;;;;5062651;28;20052;-60
2023/03/27 11:36:18;;;;;;;3.95;1.10;;;;;;;;;;5054862;28;20069;-60
2023/03/27 11:38:48;;;;;;;3.97;0.68;;;;;;;;;;5062569;28;20056;-61
2023/03/27 11:41:14;;;;;;;3.15;0.63;;;;;;;;;;5049104;28;20071;-60
2023/03/27 11:43:41;;;;;;;2.78;0.70;;;;;;;;;;5062386;28;20045;-59
2023/03/27 11:46:18;;;;;;;7.05;1.00;;;;;;;;;;5061426;28;20060;-60
2023/03/27 11:48:48;;;;;;;0.70;0.70;;;;;;;;;;5062149;28;20052;-60
2023/03/27 11:51:30;;;;;;;6.28;1.20;;;;;;;;;;5059486;28;20048;-60
2023/03/27 11:54:08;;;;;;;2.95;0.88;;;;;;;;;;5064757;28;20056;-61
2023/03/27 11:56:40;;;;;;;6.28;1.15;;;;;;;;;;5083159;28;20060;-61
2023/03/27 11:59:07;;;;;;;1.92;1.23;;;;;;;;;;5065654;28;20053;-60
2023/03/27 12:01:33;;;;;;;3.22;1.23;;;;;;;;;;5068943;28;20627;-60
2023/03/27 12:04:03;;;;;;;8.25;1.17;;;;;;;;;;5057392;28;20132;-62
2023/03/27 12:06:44;;;;;;;3.67;1.42;;;;;;;;;;5056205;28;20077;-60
2023/03/27 12:09:20;;;;;;;4.97;1.17;;;;;;;;;;5062287;28;20128;-61
2023/03/27 12:11:46;;;;;;;;;;;;;;;;;;5062308;28;20136;-62
2023/03/27 12:14:13;;;;;;;;;;;;;;;;;;5063715;28;45319;-61
2023/03/27 12:16:46;;;;;;;4.30;1.15;;;;;;;;;;5072312;28;45662;-60
2023/03/27 12:19:24;;;;;;;1.00;0.70;;;;;;;;;;5066976;28;20052;-61
2023/03/27 12:22:05;;;;;;;3.67;0.90;;;;;;;;;;5082159;28;20502;-61
2023/03/27 12:25:18;;;;;;;3.92;0.88;;;;;;;;;;5057320;28;20045;-61
2023/03/27 12:27:46;;;;;;;2.80;0.93;;;;;;;;;;5035119;28;20048;-60
2023/03/27 12:30:21;;;;;;;1.17;0.55;;;;;;;;;;5068460;28;20076;-61
2023/03/27 12:33:11;;;;;;;2.08;0.80;;;;;;;;;;5072317;28;20464;-61
2023/03/27 12:35:42;;;;;;;5.80;1.02;;;;;;;;;;5051052;28;20616;-61
2023/03/27 12:38:21;;;;;;;2.20;0.95;;;;;;;;;;5050612;28;20141;-60
2023/03/27 12:40:51;;;;;;;2.50;0.80;;;;;;;;;;5063823;28;20056;-61
2023/03/27 12:43:25;;;;;;;0.50;0.50;;;;;;;;;;5061950;28;20585;-59
2023/03/27 12:46:27;;;;;;;4.50;0.77;;;;;;;;;;5060873;28;20197;-62
2023/03/27 12:48:55;;;;;;;2.72;0.88;;;;;;;;;;4992777;28;20054;-61
2023/03/27 12:51:42;;;;;;;5.85;0.88;;;;;;;;;;5004524;28;20729;-60
2023/03/27 12:54:30;;;;;;;1.52;0.70;;;;;;;;;;4997305;28;20054;-61
2023/03/27 12:57:05;;;;;;;4.55;1.10;;;;;;;;;;4992956;28;20097;-62
2023/03/27 12:59:32;;;;;;;;;;;;;;;;;;4995486;28;20617;-60
2023/03/27 13:02:02;;;;;;;1.88;1.00;;;;;;;;;;4988398;28;46295;-61
2023/03/27 13:04:28;;;;;;;2.20;0.88;;;;;;;;;;4991228;28;20066;-61
2023/03/27 13:06:54;;;;;;;3.72;0.88;;;;;;;;;;4978757;28;20499;-62
2023/03/27 13:09:21;;;;;;;2.45;1.00;;;;;;;;;;4999685;28;20794;-61
2023/03/27 13:11:56;;;;;;;3.55;1.00;;;;;;;;;;4994682;28;20114;-62
2023/03/27 13:14:23;;;;;;;;;;;;;;;;;;5007374;28;20527;-61
2023/03/27 13:17:08;;;;;;;7.28;1.00;;;;;;;;;;4994974;28;46349;-61
2023/03/27 13:19:41;;;;;;;3.00;1.00;;;;;;;;;;4994742;28;20203;-61
2023/03/27 13:22:26;;;;;;;9.13;1.02;;;;;;;;;;4993240;28;20058;-62
2023/03/27 13:24:53;;;;;;;3.17;0.70;;;;;;;;;;5059078;28;20079;-61
2023/03/27 13:27:28;;;;;;;4.65;0.90;;;;;;;;;;5060648;28;20049;-61
2023/03/27 13:29:55;;;;;;;3.70;0.75;;;;;;;;;;5062982;28;20393;-61
2023/03/27 13:32:29;;;;;;;6.55;0.85;;;;;;;;;;5054873;28;20049;-60
2023/03/27 13:34:59;;;;;;;5.22;0.80;;;;;;;;;;5071472;28;20057;-62
2023/03/27 13:37:25;;;;;;;2.42;1.00;;;;;;;;;;5043376;28;20413;-60
2023/03/27 13:40:26;;;;;;;3.22;0.65;;;;;;;;;;5063146;28;20127;-61
2023/03/27 13:42:55;;;;;;;4.07;1.13;;;;;;;;;;5057156;28;20385;-60
2023/03/27 13:45:40;;;;;;;2.00;0.73;;;;;;;;;;5059035;28;21754;-61
2023/03/27 13:48:26;;;;;;;2.40;0.82;;;;;;;;;;5049995;28;20099;-62
2023/03/27 13:50:52;;;;;;;7.80;0.75;;;;;;;;;;5053881;28;20059;-60
2023/03/27 13:53:18;;;;;;;6.63;1.23;;;;;;;;;;5064346;28;20060;-61
2023/03/27 13:56:07;;;;;;;3.47;1.15;;;;;;;;;;5060074;28;20049;-61
2023/03/27 13:58:42;;;;;;;4.93;1.13;;;;;;;;;;5059371;28;20045;-61
2023/03/27 14:01:12;;;;;;;4.75;1.10;;;;;;;;;;5063924;28;20674;-61
2023/03/27 14:03:57;;;;;;;4.93;1.15;;;;;;;;;;5059262;28;20056;-61
2023/03/27 14:06:23;;;;;;;4.38;0.82;;;;;;;;;;5061509;28;20079;-61
2023/03/27 14:09:06;;;;;;;4.32;1.17;;;;;;;;;;5061790;28;20063;-61
2023/03/27 14:11:52;;;;;;;4.50;0.70;;;;;;;;;;5057680;28;20080;-59
2023/03/27 14:14:21;;;;;;;4.73;0.80;;;;;;;;;;5074877;28;20052;-61
2023/03/27 14:16:54;;;;;;;7.55;1.52;;;;;;;;;;5057935;28;20060;-61
2023/03/27 14:19:36;;;;;;;6.63;1.40;;;;;;;;;;5061870;28;20056;-60
2023/03/27 14:22:09;;;;;;;5.32;1.10;;;;;;;;;;5056975;28;20129;-61
2023/03/27 14:24:39;;;;;;;6.05;1.33;;;;;;;;;;5065432;28;20057;-60
2023/03/27 14:27:09;;;;;;;5.25;1.20;;;;;;;;;;5071345;28;20331;-61
2023/03/27 14:29:36;;;;;;;6.80;1.08;;;;;;;;;;5075977;28;20057;-61
2023/03/27 14:32:03;;;;;;;1.85;0.60;;;;;;;;;;5073886;28;20059;-61
2023/03/27 14:34:33;;;;;;;1.80;0.60;;;;;;;;;;5066903;28;20131;-62
2023/03/27 14:37:28;;;;;;;8.75;0.93;;;;;;;;;;5050899;28;20531;-61
2023/03/27 14:39:55;;;;;;;1.77;0.52;;;;;;;;;;5045299;28;20539;-61
2023/03/27 14:42:25;;;;;;;1.98;0.80;;;;;;;;;;5061360;28;20122;-60
2023/03/27 14:45:07;;;;;;;7.20;0.88;;;;;;;;;;5059776;28;20049;-61
2023/03/27 14:47:34;;;;;;;6.35;1.30;;;;;;;;;;5052918;28;20057;-61
2023/03/27 14:50:01;;;;;;;1.85;0.63;;;;;;;;;;5057238;28;20081;-61
2023/03/27 14:52:34;;;;;;;5.35;0.93;;;;;;;;;;5045208;28;20090;-60
2023/03/27 14:55:01;;;;;;;5.80;1.40;;;;;;;;;;5072524;28;20053;-62
2023/03/27 14:57:27;;;;;;;3.08;0.90;;;;;;;;;;5063634;28;20049;-60
2023/03/27 14:59:54;;;;;;;5.05;1.52;;;;;;;;;;5062991;28;20056;-60
2023/03/27 15:02:33;;;;;;;4.10;1.20;;;;;;;;;;5067430;28;20049;-60
2023/03/27 15:05:01;;;;;;;8.38;1.38;;;;;;;;;;5068371;28;20051;-60